Time;durP1;ratioP1;P1;durP2;ratioP2;P2;SDS_P1;SDS_P2;PMS_P1;PMS_P2;Temp;Humidity;BMP_temperature;BMP_pressure;BME280_temperature;BME280_humidity;BME280_pressure;Samples;Min_cycle;Max_cycle;Signal;HPM_P1;HPM_P2
2023/06/10 00:01:34;;;;;;;13.10;9.40;;;;;;;17.43;100.00;101170.03;10488592;28;20120;-85
2023/06/10 00:06:37;;;;;;;12.25;9.13;;;;;;;17.30;100.00;101161.78;10503182;28;20043;-84
2023/06/10 00:11:37;;;;;;;12.50;9.95;;;;;;;17.13;100.00;101161.38;10511652;28;20460;-84
2023/06/10 00:16:38;;;;;;;10.95;9.20;;;;;;;16.99;100.00;101165.44;10511774;28;20131;-84
2023/06/10 00:21:39;;;;;;;11.13;8.80;;;;;;;16.83;100.00;101161.44;10528115;28;20561;-85
2023/06/10 00:26:40;;;;;;;13.93;9.03;;;;;;;16.70;100.00;101166.38;10511580;28;20044;-84
2023/06/10 00:31:41;;;;;;;13.27;10.00;;;;;;;16.58;100.00;101164.31;10462385;28;20040;-85
2023/06/10 00:36:43;;;;;;;14.52;9.18;;;;;;;16.50;100.00;101171.13;10511023;28;20067;-85
2023/06/10 00:41:43;;;;;;;11.95;8.98;;;;;;;16.47;100.00;101170.13;10529007;28;20040;-85
2023/06/10 00:46:44;;;;;;;13.68;10.27;;;;;;;16.38;100.00;101176.06;10526285;28;20078;-84
2023/06/10 00:51:45;;;;;;;12.32;9.80;;;;;;;16.23;100.00;101187.06;10511097;28;20036;-85
2023/06/10 00:56:45;;;;;;;11.65;9.73;;;;;;;16.09;100.00;101181.41;10468525;28;20127;-84
2023/06/10 01:01:47;;;;;;;13.20;10.35;;;;;;;15.95;100.00;101184.50;10495773;28;20490;-85
2023/06/10 01:07:15;;;;;;;12.87;9.87;;;;;;;15.92;100.00;101181.78;10476967;28;20054;-85
2023/06/10 01:12:36;;;;;;;11.68;9.88;;;;;;;15.86;100.00;101181.56;10538354;28;20520;-85
2023/06/10 01:17:53;;;;;;;12.73;10.35;;;;;;;15.70;100.00;101182.81;10524603;28;20043;-85
2023/06/10 01:22:54;;;;;;;13.05;10.57;;;;;;;15.53;100.00;101188.44;10493528;28;20048;-86
2023/06/10 01:28:12;;;;;;;13.68;11.07;;;;;;;15.41;100.00;101191.59;10491381;28;20078;-84
2023/06/10 01:33:13;;;;;;;14.20;10.93;;;;;;;15.36;100.00;101195.81;10497842;28;20123;-85
2023/06/10 01:38:13;;;;;;;15.20;9.77;;;;;;;15.26;100.00;101197.22;10486242;28;20046;-85
2023/06/10 01:43:14;;;;;;;13.52;10.90;;;;;;;15.16;100.00;101192.50;10491458;28;20111;-85
2023/06/10 01:48:14;;;;;;;11.85;10.40;;;;;;;15.10;100.00;101201.09;10525898;28;20032;-85
2023/06/10 01:53:15;;;;;;;17.83;11.60;;;;;;;15.08;100.00;101201.88;10474471;28;20040;-85
2023/06/10 01:58:15;;;;;;;15.82;11.65;;;;;;;15.01;100.00;101205.13;10524481;28;20028;-85
2023/06/10 02:03:16;;;;;;;17.83;11.98;;;;;;;14.92;100.00;101211.88;10524560;28;20135;-85
2023/06/10 02:08:16;;;;;;;13.18;11.52;;;;;;;14.84;100.00;101210.72;10508283;28;20452;-84
2023/06/10 02:13:17;;;;;;;18.05;12.65;;;;;;;14.97;100.00;101214.69;10523763;28;20455;-83
2023/06/10 02:18:20;;;;;;;15.43;11.25;;;;;;;14.93;100.00;101213.66;10490075;28;20185;-84
2023/06/10 02:23:20;;;;;;;19.13;13.68;;;;;;;14.83;100.00;101220.38;10507519;28;20036;-84
2023/06/10 02:28:21;;;;;;;13.27;11.88;;;;;;;14.78;100.00;101231.56;10506002;28;20143;-83
2023/06/10 02:33:23;;;;;;;14.13;12.23;;;;;;;14.66;100.00;101229.38;10524407;28;20128;-84
2023/06/10 02:38:23;;;;;;;12.88;11.40;;;;;;;14.77;100.00;101235.97;10473906;28;20415;-84
2023/06/10 02:43:24;;;;;;;17.35;11.43;;;;;;;14.83;100.00;101232.63;10470146;28;20130;-84
2023/06/10 02:48:24;;;;;;;13.07;10.75;;;;;;;14.95;100.00;101225.16;10504685;28;20148;-82
2023/06/10 02:53:25;;;;;;;15.00;12.00;;;;;;;14.93;100.00;101229.47;10505060;28;20040;-80
2023/06/10 02:58:26;;;;;;;16.52;10.45;;;;;;;14.99;100.00;101218.28;10484721;28;20048;-83
2023/06/10 03:03:27;;;;;;;14.70;11.13;;;;;;;14.89;100.00;101219.69;10527454;28;20120;-82
2023/06/10 03:08:28;;;;;;;18.63;13.43;;;;;;;14.93;100.00;101218.06;10510103;28;20090;-82
2023/06/10 03:13:28;;;;;;;15.15;11.82;;;;;;;14.66;100.00;101222.34;10531031;28;20464;-81
2023/06/10 03:18:29;;;;;;;15.32;11.98;;;;;;;14.47;100.00;101228.69;10513058;28;20044;-81
2023/06/10 03:23:29;;;;;;;17.13;13.55;;;;;;;14.46;100.00;101231.25;10469177;28;20064;-82
2023/06/10 03:28:30;;;;;;;15.98;13.68;;;;;;;14.42;100.00;101234.59;10501277;28;20032;-81
2023/06/10 03:33:32;;;;;;;25.27;15.38;;;;;;;14.44;100.00;101236.47;10507551;28;20123;-79
2023/06/10 03:38:32;;;;;;;17.87;13.83;;;;;;;14.42;100.00;101238.16;10511564;28;20040;-79
2023/06/10 03:43:33;;;;;;;29.15;13.90;;;;;;;14.33;100.00;101243.94;10511319;28;20123;-79
2023/06/10 03:48:34;;;;;;;29.63;15.95;;;;;;;14.26;100.00;101241.03;10533515;28;20138;-79
2023/06/10 03:53:34;;;;;;;31.38;14.05;;;;;;;14.22;100.00;101261.06;10531769;28;20127;-80
2023/06/10 03:58:35;;;;;;;64.45;20.48;;;;;;;14.26;100.00;101260.34;10512291;28;20050;-80
2023/06/10 04:03:35;;;;;;;21.90;15.65;;;;;;;14.27;100.00;101262.13;10530960;28;20119;-86
2023/06/10 04:08:36;;;;;;;19.20;15.05;;;;;;;14.21;100.00;101268.06;10495762;28;20488;-86
2023/06/10 04:13:37;;;;;;;18.48;14.40;;;;;;;14.26;100.00;101272.63;10526403;28;20036;-81
2023/06/10 04:18:38;;;;;;;17.80;13.43;;;;;;;14.52;100.00;101274.53;10545513;28;20042;-82
2023/06/10 04:23:38;;;;;;;16.30;12.43;;;;;;;14.76;100.00;101267.50;10501353;28;20040;-82
2023/06/10 04:28:39;;;;;;;16.25;13.27;;;;;;;15.12;100.00;101273.22;10511308;28;20063;-83
2023/06/10 04:33:39;;;;;;;16.40;12.65;;;;;;;15.53;100.00;101264.94;10493695;28;20487;-83
2023/06/10 04:38:40;;;;;;;16.73;11.77;;;;;;;15.81;100.00;101264.97;10529142;28;20066;-82
2023/06/10 04:43:41;;;;;;;21.30;14.00;;;;;;;16.10;100.00;101265.03;10509569;28;20093;-82
2023/06/10 04:48:42;;;;;;;21.65;15.07;;;;;;;16.40;100.00;101259.78;10525703;28;20127;-83
2023/06/10 04:53:42;;;;;;;19.65;13.15;;;;;;;16.53;100.00;101254.84;10529288;28;20111;-82
2023/06/10 04:58:43;;;;;;;13.93;11.63;;;;;;;16.92;100.00;101251.56;10492172;28;20495;-82
2023/06/10 05:03:43;;;;;;;22.35;14.60;;;;;;;17.27;100.00;101245.47;10510963;28;20147;-81
2023/06/10 05:08:44;;;;;;;16.75;13.98;;;;;;;17.57;100.00;101247.13;10480858;28;20111;-80
2023/06/10 05:13:44;;;;;;;16.48;12.40;;;;;;;18.01;100.00;101242.03;10509913;28;20134;-81
2023/06/10 05:18:45;;;;;;;23.00;14.13;;;;;;;18.48;100.00;101243.91;10498477;28;20046;-81
2023/06/10 05:23:46;;;;;;;17.27;11.20;;;;;;;19.03;100.00;101245.91;10466717;28;20033;-81
2023/06/10 05:28:46;;;;;;;14.37;11.57;;;;;;;19.76;100.00;101240.94;10451326;28;20036;-81
2023/06/10 05:33:47;;;;;;;12.87;11.27;;;;;;;20.34;100.00;101235.63;10503722;28;20042;-81
2023/06/10 05:38:47;;;;;;;19.17;10.60;;;;;;;20.87;100.00;101240.69;10509908;28;20028;-81
2023/06/10 05:43:48;;;;;;;17.87;11.10;;;;;;;21.55;100.00;101236.03;10508633;28;20127;-80
2023/06/10 05:48:48;;;;;;;23.33;10.83;;;;;;;22.26;100.00;101240.97;10476432;28;20548;-80
2023/06/10 05:53:49;;;;;;;11.33;10.20;;;;;;;23.22;100.00;101232.38;10436961;28;20093;-81
2023/06/10 05:58:49;;;;;;;15.80;11.97;;;;;;;23.43;100.00;101242.25;10506321;28;20555;-80
2023/06/10 06:03:50;;;;;;;18.30;11.97;;;;;;;23.92;100.00;101230.59;10492772;28;20040;-81
2023/06/10 06:08:50;;;;;;;19.17;10.27;;;;;;;24.66;100.00;101239.28;10475451;28;20403;-81
2023/06/10 06:13:51;;;;;;;13.83;9.73;;;;;;;25.39;100.00;101228.16;10489298;28;20040;-81
2023/06/10 06:18:51;;;;;;;14.97;9.77;;;;;;;25.81;94.31;101236.72;10498180;28;20044;-81
2023/06/10 06:23:52;;;;;;;12.97;10.27;;;;;;;26.03;90.45;101240.06;10524943;28;20495;-80
2023/06/10 06:28:52;;;;;;;14.80;9.50;;;;;;;26.51;83.30;101241.31;10506537;28;20266;-81
2023/06/10 06:33:53;;;;;;;13.95;11.00;;;;;;;27.07;69.53;101240.56;10506994;28;20032;-82
2023/06/10 06:38:53;;;;;;;16.30;9.18;;;;;;;27.43;68.93;101240.88;10523287;28;20135;-81
2023/06/10 06:43:54;;;;;;;;;;;;;;;27.91;70.00;101247.25;10508585;28;20089;-81
2023/06/10 06:48:54;;;;;;;17.10;11.10;;;;;;;28.25;66.87;101252.00;10524426;28;20387;-81
2023/06/10 06:53:58;;;;;;;13.93;9.40;;;;;;;28.71;61.01;101248.34;10505679;28;20059;-81
2023/06/10 06:58:59;;;;;;;13.80;11.10;;;;;;;29.06;58.79;101251.19;10481958;28;20048;-81
2023/06/10 07:03:59;;;;;;;11.38;9.82;;;;;;;29.16;56.45;101246.44;10484733;28;20040;-81
2023/06/10 07:09:00;;;;;;;13.45;10.55;;;;;;;29.52;60.33;101262.66;10485540;28;20143;-81
2023/06/10 07:14:00;;;;;;;11.25;9.90;;;;;;;30.32;56.38;101270.44;10503256;28;20059;-81
2023/06/10 07:19:01;;;;;;;11.90;10.60;;;;;;;30.64;51.56;101269.56;10507237;28;20102;-81
2023/06/10 07:24:01;;;;;;;15.23;10.38;;;;;;;30.48;52.10;101270.00;10504691;28;20052;-81
2023/06/10 07:29:02;;;;;;;11.77;9.02;;;;;;;30.24;52.56;101271.56;10500048;28;20051;-81
2023/06/10 07:34:03;;;;;;;16.23;9.63;;;;;;;30.92;50.71;101264.19;10465678;28;20380;-80
2023/06/10 07:39:04;;;;;;;12.77;9.07;;;;;;;30.96;51.15;101265.84;10522790;28;20040;-81
2023/06/10 07:44:04;;;;;;;11.35;8.20;;;;;;;31.82;46.05;101263.97;10505953;28;20376;-80
2023/06/10 07:49:06;;;;;;;11.68;8.75;;;;;;;31.69;44.09;101263.50;10509674;28;20044;-83
2023/06/10 07:54:07;;;;;;;12.60;7.75;;;;;;;31.71;45.12;101258.91;10512883;28;20032;-83
2023/06/10 07:59:07;;;;;;;17.98;9.55;;;;;;;31.89;46.10;101268.22;10513206;28;20040;-83
2023/06/10 08:04:08;;;;;;;13.88;8.30;;;;;;;32.10;41.39;101271.09;10511892;28;20360;-83
2023/06/10 08:09:09;;;;;;;12.48;7.68;;;;;;;32.44;42.77;101269.00;10498709;28;20045;-81
2023/06/10 08:14:09;;;;;;;11.73;8.40;;;;;;;32.84;40.42;101269.25;10505437;28;20551;-80
2023/06/10 08:19:10;;;;;;;13.48;8.30;;;;;;;32.83;40.28;101268.38;10531146;28;20054;-79
2023/06/10 08:24:10;;;;;;;16.50;9.15;;;;;;;33.32;38.70;101261.94;10529660;28;20042;-78
2023/06/10 08:29:12;;;;;;;11.25;7.72;;;;;;;33.37;41.64;101262.63;10505897;28;20036;-80
2023/06/10 08:34:12;;;;;;;11.07;7.45;;;;;;;33.62;41.05;101269.75;10517321;28;20480;-79
2023/06/10 08:39:13;;;;;;;11.82;7.93;;;;;;;33.92;36.05;101270.22;10518667;28;20147;-79
2023/06/10 08:44:20;;;;;;;9.40;7.22;;;;;;;33.47;36.88;101269.44;10528660;28;20056;-80
2023/06/10 08:49:20;;;;;;;8.77;7.80;;;;;;;33.75;37.06;101262.84;10543040;28;20036;-80
2023/06/10 08:54:22;;;;;;;11.40;9.05;;;;;;;33.78;36.12;101259.97;10481520;28;20064;-80
2023/06/10 08:59:22;;;;;;;10.95;8.38;;;;;;;33.95;35.38;101261.09;10481770;28;20043;-80
2023/06/10 09:04:24;;;;;;;9.80;7.00;;;;;;;34.00;34.92;101260.88;10478664;28;20472;-78
2023/06/10 09:09:24;;;;;;;8.25;6.90;;;;;;;34.27;37.28;101269.63;10484940;28;20072;-78
2023/06/10 09:14:25;;;;;;;13.80;8.05;;;;;;;34.57;35.04;101266.44;10484954;28;20127;-78
2023/06/10 09:19:26;;;;;;;13.43;8.45;;;;;;;35.19;35.33;101259.88;10468994;28;20044;-79
2023/06/10 09:24:26;;;;;;;7.95;7.00;;;;;;;35.08;35.66;101255.84;10519540;28;20472;-79
2023/06/10 09:29:27;;;;;;;12.40;7.43;;;;;;;35.24;33.71;101258.69;10501170;28;20060;-81
2023/06/10 09:34:27;;;;;;;8.98;8.07;;;;;;;35.48;34.70;101243.91;10485471;28;20181;-81
2023/06/10 09:39:28;;;;;;;15.55;8.43;;;;;;;36.07;32.15;101255.38;10517990;28;20166;-80
2023/06/10 09:44:28;;;;;;;12.18;8.52;;;;;;;35.77;34.07;101247.84;10500689;28;20132;-80
2023/06/10 09:49:29;;;;;;;8.98;7.57;;;;;;;36.04;31.84;101249.19;10502005;28;20170;-81
2023/06/10 09:54:31;;;;;;;9.60;8.13;;;;;;;35.97;33.54;101246.78;10469929;28;20060;-80
2023/06/10 09:59:32;;;;;;;9.93;7.22;;;;;;;36.22;31.12;101247.34;10521091;28;20040;-80
2023/06/10 10:04:32;;;;;;;8.55;7.07;;;;;;;35.85;33.88;101242.00;10500871;28;20060;-79
2023/06/10 10:09:33;;;;;;;10.60;7.57;;;;;;;36.48;32.09;101248.59;10483230;28;20119;-79
2023/06/10 10:14:35;;;;;;;8.35;7.05;;;;;;;36.94;31.39;101249.69;10516961;28;20036;-80
2023/06/10 10:19:40;;;;;;;10.40;7.47;;;;;;;36.36;29.14;101249.28;10490402;28;20039;-80
2023/06/10 10:25:01;;;;;;;14.48;8.30;;;;;;;36.03;30.76;101244.72;10519568;28;20464;-81
2023/06/10 10:30:04;;;;;;;10.18;6.80;;;;;;;35.57;32.75;101232.56;10473506;28;20488;-78
2023/06/10 10:35:08;;;;;;;10.98;6.82;;;;;;;35.35;32.83;101239.09;10483167;28;20093;-79
2023/06/10 10:40:09;;;;;;;8.70;7.05;;;;;;;35.79;29.97;101239.59;10483338;28;20044;-79
2023/06/10 10:45:09;;;;;;;16.23;8.15;;;;;;;35.82;30.91;101228.53;10465238;28;20039;-78
2023/06/10 10:50:17;;;;;;;8.57;6.60;;;;;;;36.30;30.37;101215.97;10465389;28;20400;-78
2023/06/10 10:55:18;;;;;;;7.63;6.82;;;;;;;36.26;31.82;101217.09;10483153;28;20447;-81
2023/06/10 11:00:32;;;;;;;12.27;7.00;;;;;;;36.01;29.96;101217.59;10497508;28;20104;-78
2023/06/10 11:05:37;;;;;;;7.72;6.22;;;;;;;36.25;29.52;101211.75;10449916;28;20372;-78
2023/06/10 11:10:38;;;;;;;8.57;7.35;;;;;;;36.66;30.64;101215.84;10466384;28;20032;-78
2023/06/10 11:15:49;;;;;;;11.90;6.90;;;;;;;36.94;29.46;101200.59;10464528;28;20109;-80
2023/06/10 11:20:50;;;;;;;21.65;8.27;;;;;;;37.08;28.02;101206.16;10483738;28;20043;-81
2023/06/10 11:25:50;;;;;;;14.75;8.20;;;;;;;36.74;27.51;101195.38;10494003;28;20040;-80
2023/06/10 11:30:57;;;;;;;13.27;8.20;;;;;;;36.46;28.83;101201.47;10491044;28;20047;-80
2023/06/10 11:35:58;;;;;;;11.55;7.57;;;;;;;36.63;28.33;101196.94;10505774;28;20117;-79
2023/06/10 11:40:58;;;;;;;13.15;8.55;;;;;;;36.19;28.27;101190.31;10472346;28;20036;-79
2023/06/10 11:45:59;;;;;;;13.93;8.77;;;;;;;36.03;27.09;101184.81;10505578;28;20056;-79
2023/06/10 11:51:00;;;;;;;9.73;6.28;;;;;;;35.80;27.11;101185.09;10489370;28;20033;-79
2023/06/10 11:56:00;;;;;;;20.10;7.35;;;;;;;35.85;27.94;101184.81;10505109;28;20052;-78
2023/06/10 12:01:01;;;;;;;10.07;7.05;;;;;;;36.55;27.70;101189.22;10527297;28;20050;-80
2023/06/10 12:06:06;;;;;;;10.80;7.72;;;;;;;36.30;29.99;101166.91;10530183;28;20408;-79
2023/06/10 12:11:06;;;;;;;8.35;6.28;;;;;;;36.03;27.13;101169.38;10489907;28;20031;-81
2023/06/10 12:16:10;;;;;;;9.70;7.95;;;;;;;36.09;27.35;101168.13;10453688;28;20051;-79
2023/06/10 12:21:20;;;;;;;11.68;6.63;;;;;;;36.29;28.80;101172.47;10504571;28;20047;-77
2023/06/10 12:26:21;;;;;;;12.15;6.80;;;;;;;36.01;26.05;101169.44;10503996;28;20116;-83
2023/06/10 12:31:21;;;;;;;11.93;7.30;;;;;;;35.22;27.14;101159.97;10504783;28;20495;-80
2023/06/10 12:36:24;;;;;;;10.00;6.40;;;;;;;34.92;26.86;101154.22;10522473;28;20054;-78
2023/06/10 12:41:25;;;;;;;8.32;6.30;;;;;;;34.95;28.51;101157.69;10512060;28;20032;-79
2023/06/10 12:46:25;;;;;;;12.57;6.93;;;;;;;36.13;25.53;101146.09;10450381;28;20131;-80
2023/06/10 12:51:26;;;;;;;8.73;6.28;;;;;;;35.86;26.31;101164.78;10469414;28;20151;-80
2023/06/10 12:56:27;;;;;;;10.18;7.03;;;;;;;34.70;26.44;101166.16;10495889;28;20048;-81
2023/06/10 13:01:27;;;;;;;9.63;6.50;;;;;;;34.79;28.13;101146.69;10526480;28;20082;-81
2023/06/10 13:06:28;;;;;;;9.98;7.25;;;;;;;34.87;27.16;101153.56;10509065;28;20040;-80
2023/06/10 13:11:29;;;;;;;8.82;6.65;;;;;;;34.91;29.06;101147.03;10522412;28;20028;-79
2023/06/10 13:16:31;;;;;;;9.13;7.25;;;;;;;34.79;28.22;101141.25;10498020;28;20124;-79
2023/06/10 13:21:34;;;;;;;8.98;7.43;;;;;;;35.30;27.72;101142.38;10469165;28;20124;-80
2023/06/10 13:26:35;;;;;;;11.20;7.53;;;;;;;35.14;27.85;101132.28;10509647;28;20028;-83
2023/06/10 13:31:35;;;;;;;7.00;6.30;;;;;;;35.13;28.65;101133.25;10499578;28;20169;-81
2023/06/10 13:36:36;;;;;;;8.38;7.38;;;;;;;35.86;27.30;101132.13;10524321;28;20134;-80
2023/06/10 13:41:36;;;;;;;11.32;6.50;;;;;;;35.50;27.28;101138.59;10498221;28;20127;-80
2023/06/10 13:46:37;;;;;;;8.27;6.57;;;;;;;35.86;26.11;101116.69;10509073;28;20055;-80
2023/06/10 13:51:37;;;;;;;9.07;7.05;;;;;;;36.79;26.41;101109.69;10525444;28;20123;-81
2023/06/10 13:56:38;;;;;;;10.50;7.05;;;;;;;36.85;25.41;101102.00;10506753;28;20125;-79
2023/06/10 14:01:40;;;;;;;10.32;6.88;;;;;;;34.67;28.14;101110.16;10526627;28;20127;-81
2023/06/10 14:06:41;;;;;;;8.52;7.63;;;;;;;33.38;27.94;101117.94;10512879;28;20033;-80
2023/06/10 14:11:42;;;;;;;8.23;6.65;;;;;;;31.41;31.48;101117.53;10469873;28;20502;-80
2023/06/10 14:16:42;;;;;;;;;;;;;;;30.33;34.46;101122.84;10494290;28;20040;-81
2023/06/10 14:21:42;;;;;;;8.67;6.17;;;;;;;29.60;35.61;101125.84;10500100;28;20272;-78
2023/06/10 14:26:43;;;;;;;8.87;7.97;;;;;;;29.27;36.86;101124.94;10493173;28;20052;-81
2023/06/10 14:31:43;;;;;;;9.63;6.57;;;;;;;29.09;38.24;101127.19;10507372;28;20353;-81
2023/06/10 14:36:44;;;;;;;8.83;6.17;;;;;;;29.23;38.36;101121.41;10524515;28;20497;-81
2023/06/10 14:41:44;;;;;;;8.70;7.80;;;;;;;29.63;38.76;101119.50;10488033;28;20044;-81
2023/06/10 14:46:45;;;;;;;8.40;7.17;;;;;;;30.12;37.63;101109.09;10498893;28;20040;-81
2023/06/10 14:51:46;;;;;;;10.20;7.45;;;;;;;30.91;38.80;101106.59;10465363;28;20532;-82
2023/06/10 14:56:46;;;;;;;10.98;6.75;;;;;;;30.75;37.56;101105.34;10471657;28;20051;-82
2023/06/10 15:01:47;;;;;;;7.93;6.97;;;;;;;30.69;35.66;101095.63;10507217;28;20055;-81
2023/06/10 15:06:48;;;;;;;8.23;6.13;;;;;;;30.40;36.66;101091.16;10523146;28;20518;-80
2023/06/10 15:11:49;;;;;;;9.98;6.82;;;;;;;30.61;39.00;101095.91;10490096;28;20552;-81
2023/06/10 15:16:50;;;;;;;7.53;6.38;;;;;;;30.59;36.08;101089.66;10480545;28;20041;-80
2023/06/10 15:21:50;;;;;;;11.13;6.82;;;;;;;29.86;38.21;101089.13;10515839;28;20040;-82
2023/06/10 15:26:51;;;;;;;8.17;7.10;;;;;;;29.72;37.16;101085.97;10494760;28;20092;-80
2023/06/10 15:31:51;;;;;;;9.70;6.73;;;;;;;30.18;36.57;101079.22;10509957;28;20523;-79
2023/06/10 15:36:52;;;;;;;9.77;7.30;;;;;;;30.42;34.71;101073.09;10483407;28;20285;-80
2023/06/10 15:41:52;;;;;;;7.65;6.88;;;;;;;30.79;34.43;101076.41;10512015;28;20488;-78
2023/06/10 15:46:53;;;;;;;14.50;7.23;;;;;;;30.59;33.43;101069.84;10522904;28;20052;-79
2023/06/10 15:51:53;;;;;;;7.53;6.73;;;;;;;30.35;34.18;101069.69;10506432;28;20271;-79
2023/06/10 15:56:53;;;;;;;10.90;6.38;;;;;;;30.09;34.76;101073.22;10522466;28;20440;-78
2023/06/10 16:01:54;;;;;;;10.03;7.00;;;;;;;29.90;36.58;101071.06;10511879;28;20037;-77
2023/06/10 16:06:56;;;;;;;9.63;6.97;;;;;;;29.46;36.45;101076.81;10498640;28;20433;-80
2023/06/10 16:11:57;;;;;;;12.15;7.35;;;;;;;29.17;36.75;101067.69;10507210;28;20033;-79
2023/06/10 16:16:57;;;;;;;11.20;7.47;;;;;;;29.11;36.06;101059.78;10507568;28;20518;-80
2023/06/10 16:21:58;;;;;;;7.27;6.53;;;;;;;29.43;36.53;101055.34;10502361;28;20090;-75
2023/06/10 16:26:58;;;;;;;9.70;5.97;;;;;;;29.80;38.25;101046.16;10489208;28;20044;-76
2023/06/10 16:31:59;;;;;;;9.87;7.33;;;;;;;30.02;39.11;101048.25;10474795;28;20060;-77
2023/06/10 16:37:00;;;;;;;9.00;7.18;;;;;;;30.17;39.93;101047.75;10530097;28;20143;-78
2023/06/10 16:42:00;;;;;;;8.52;6.95;;;;;;;30.23;39.35;101043.09;10509713;28;20226;-78
2023/06/10 16:47:01;;;;;;;10.77;7.25;;;;;;;29.75;37.32;101045.41;10521214;28;20071;-79
2023/06/10 16:52:01;;;;;;;12.93;7.93;;;;;;;29.75;38.16;101050.81;10486143;28;20128;-79
2023/06/10 16:57:02;;;;;;;12.07;6.75;;;;;;;29.56;38.16;101062.13;10492326;28;20044;-80
2023/06/10 17:02:03;;;;;;;8.50;7.03;;;;;;;29.24;39.34;101060.34;10512150;28;20036;-79
2023/06/10 17:07:03;;;;;;;12.52;7.78;;;;;;;29.06;40.23;101062.59;10507977;28;20040;-78
2023/06/10 17:12:05;;;;;;;11.13;7.97;;;;;;;28.94;39.89;101063.78;10470116;28;20051;-79
2023/06/10 17:17:06;;;;;;;8.43;7.07;;;;;;;28.74;40.62;101064.28;10498010;28;20059;-77
2023/06/10 17:22:06;;;;;;;8.93;6.57;;;;;;;28.65;40.72;101068.09;10513522;28;20044;-78
2023/06/10 17:27:07;;;;;;;10.67;7.30;;;;;;;28.55;41.99;101069.22;10518068;28;20368;-78
2023/06/10 17:32:08;;;;;;;7.40;6.43;;;;;;;28.28;46.92;101067.19;10511704;28;20085;-77
2023/06/10 17:37:08;;;;;;;11.93;7.50;;;;;;;27.87;51.04;101062.69;10547690;28;20050;-77
2023/06/10 17:42:09;;;;;;;12.00;8.97;;;;;;;27.49;53.96;101076.88;10573103;28;20031;-77
2023/06/10 17:47:09;;;;;;;10.18;8.48;;;;;;;27.04;68.36;101085.75;10484146;28;20135;-77
2023/06/10 17:52:10;;;;;;;11.77;6.73;;;;;;;26.59;62.06;101077.53;10494304;28;20078;-77
2023/06/10 17:57:11;;;;;;;13.87;7.67;;;;;;;26.19;69.34;101081.66;10534548;28;20067;-78
2023/06/10 18:02:11;;;;;;;10.67;9.03;;;;;;;25.65;73.89;101083.22;10490839;28;20046;-78
2023/06/10 18:07:12;;;;;;;8.60;6.57;;;;;;;25.15;81.96;101088.19;10466447;28;20043;-78
2023/06/10 18:12:12;;;;;;;8.63;7.00;;;;;;;24.70;88.19;101089.44;10492820;28;20537;-78
2023/06/10 18:17:13;;;;;;;11.50;8.67;;;;;;;24.37;94.67;101082.50;10507317;28;20088;-78
2023/06/10 18:22:13;;;;;;;12.87;9.90;;;;;;;24.04;100.00;101088.94;10501688;28;20083;-78
2023/06/10 18:27:14;;;;;;;14.50;8.73;;;;;;;23.88;100.00;101096.09;10509690;28;20036;-78
2023/06/10 18:32:17;;;;;;;13.47;8.47;;;;;;;23.55;100.00;101092.66;10520416;28;20127;-78
2023/06/10 18:37:18;;;;;;;12.00;8.43;;;;;;;23.39;100.00;101091.78;10540293;28;20092;-79
2023/06/10 18:42:24;;;;;;;12.85;8.30;;;;;;;23.44;100.00;101099.81;10533294;28;20076;-79
2023/06/10 18:47:25;;;;;;;12.10;7.87;;;;;;;23.37;100.00;101109.59;10513536;28;20080;-79
2023/06/10 18:52:25;;;;;;;15.03;7.80;;;;;;;23.17;100.00;101102.47;10525541;28;20111;-79
2023/06/10 18:57:26;;;;;;;11.37;6.87;;;;;;;23.24;100.00;101114.06;10523590;28;20178;-79
2023/06/10 19:02:28;;;;;;;12.17;7.53;;;;;;;23.29;100.00;101120.31;10517964;28;20122;-77
2023/06/10 19:07:28;;;;;;;14.57;6.95;;;;;;;23.27;100.00;101121.19;10515094;28;20472;-78
2023/06/10 19:12:29;;;;;;;10.43;7.43;;;;;;;23.30;100.00;101131.84;10491642;28;20162;-77
2023/06/10 19:17:30;;;;;;;8.43;6.73;;;;;;;23.02;100.00;101140.75;10502782;28;20071;-77
2023/06/10 19:22:30;;;;;;;11.93;5.97;;;;;;;23.15;100.00;101135.41;10526462;28;20036;-77
2023/06/10 19:27:31;;;;;;;11.60;7.07;;;;;;;22.99;100.00;101143.41;10508648;28;20067;-77
2023/06/10 19:32:31;;;;;;;12.87;7.63;;;;;;;22.68;100.00;101142.47;10485692;28;20044;-77
2023/06/10 19:37:32;;;;;;;10.13;7.10;;;;;;;22.40;100.00;101150.38;10519941;28;20124;-78
2023/06/10 19:42:36;;;;;;;8.47;7.53;;;;;;;22.12;100.00;101158.25;10490292;28;20059;-78
2023/06/10 19:47:37;;;;;;;14.30;8.35;;;;;;;21.95;100.00;101166.19;10523556;28;20075;-78
2023/06/10 19:52:37;;;;;;;9.90;7.73;;;;;;;21.75;100.00;101180.28;10536193;28;20522;-78
2023/06/10 19:57:38;;;;;;;11.20;6.43;;;;;;;21.67;100.00;101180.22;10518930;28;20131;-78
2023/06/10 20:02:38;;;;;;;9.00;6.83;;;;;;;21.46;100.00;101185.38;10506846;28;20037;-79
2023/06/10 20:07:39;;;;;;;32.50;9.10;;;;;;;21.25;100.00;101190.53;10523762;28;20127;-79
2023/06/10 20:12:39;;;;;;;11.23;7.67;;;;;;;21.10;100.00;101185.09;10485697;28;20047;-79
2023/06/10 20:17:40;;;;;;;11.10;6.87;;;;;;;20.99;100.00;101187.63;10494458;28;20605;-79
2023/06/10 20:22:41;;;;;;;11.17;7.40;;;;;;;20.95;100.00;101188.47;10530210;28;20044;-79
2023/06/10 20:27:42;;;;;;;13.50;7.10;;;;;;;20.96;100.00;101185.84;10526167;28;20082;-79
2023/06/10 20:32:42;;;;;;;9.48;7.32;;;;;;;20.83;100.00;101191.91;10529662;28;20484;-80
2023/06/10 20:37:43;;;;;;;15.90;8.82;;;;;;;20.54;100.00;101200.44;10529264;28;21578;-79
2023/06/10 20:42:43;;;;;;;10.67;7.87;;;;;;;20.37;100.00;101211.75;10506747;28;20539;-80
2023/06/10 20:47:44;;;;;;;17.92;8.25;;;;;;;20.18;100.00;101212.38;10513341;28;20165;-79
2023/06/10 20:52:44;;;;;;;11.80;8.18;;;;;;;19.94;100.00;101214.69;10498185;28;20138;-79
2023/06/10 20:57:45;;;;;;;12.80;7.60;;;;;;;19.76;100.00;101217.97;10489377;28;20276;-78
2023/06/10 21:02:45;;;;;;;13.02;7.97;;;;;;;19.74;100.00;101216.13;10534107;28;20143;-78
2023/06/10 21:07:46;;;;;;;10.50;7.25;;;;;;;19.58;100.00;101215.03;10529148;28;20040;-78
2023/06/10 21:12:47;;;;;;;10.23;7.50;;;;;;;19.51;100.00;101216.66;10508408;28;20571;-79
2023/06/10 21:17:47;;;;;;;10.77;8.43;;;;;;;19.34;100.00;101225.25;10511208;28;20112;-78
2023/06/10 21:22:48;;;;;;;11.88;7.68;;;;;;;19.27;100.00;101223.34;10493229;28;20048;-76
2023/06/10 21:27:49;;;;;;;12.68;8.23;;;;;;;19.20;100.00;101225.00;10504404;28;20039;-76
2023/06/10 21:32:49;;;;;;;15.77;7.75;;;;;;;19.07;100.00;101226.53;10561899;28;20039;-77
2023/06/10 21:37:50;;;;;;;11.18;6.85;;;;;;;19.02;100.00;101220.25;10513544;28;20465;-79
2023/06/10 21:42:50;;;;;;;13.68;8.32;;;;;;;18.99;100.00;101233.47;10498544;28;20589;-79
2023/06/10 21:47:51;;;;;;;11.27;7.90;;;;;;;19.02;100.00;101225.56;10487132;28;20189;-86
2023/06/10 21:52:51;;;;;;;9.50;7.70;;;;;;;18.86;100.00;101237.63;10499367;28;20157;-78
2023/06/10 21:57:52;;;;;;;15.95;8.43;;;;;;;18.66;100.00;101234.56;10512939;28;20515;-76
2023/06/10 22:02:54;;;;;;;14.15;7.45;;;;;;;18.48;100.00;101245.69;10522542;28;20505;-78
2023/06/10 22:07:55;;;;;;;16.88;9.25;;;;;;;18.31;100.00;101250.59;10515862;28;20195;-78
2023/06/10 22:12:56;;;;;;;11.52;8.70;;;;;;;18.21;100.00;101254.81;10493168;28;20028;-78
2023/06/10 22:17:56;;;;;;;16.45;9.98;;;;;;;18.25;100.00;101253.13;10507536;28;20076;-78
2023/06/10 22:22:57;;;;;;;12.63;9.93;;;;;;;18.23;100.00;101246.91;10517813;28;20036;-77
2023/06/10 22:27:57;;;;;;;13.52;10.20;;;;;;;18.08;100.00;101256.28;10505585;28;20126;-79
2023/06/10 22:32:58;;;;;;;12.85;8.65;;;;;;;17.96;100.00;101255.97;10501569;28;20403;-79
2023/06/10 22:37:58;;;;;;;14.98;8.93;;;;;;;17.82;100.00;101250.38;10490753;28;20046;-79
2023/06/10 22:42:59;;;;;;;14.45;9.43;;;;;;;17.72;100.00;101250.13;10524955;28;20466;-79